Milwaukee, Wisconsin
Traffic Map
Current Weather Conditions
Milwaukee, Wisconsin
Overcast
Overcast
11°
Feels Like: 11°
Wind Chill: 11° Ceiling: 800
Heat Index: 11° Visibility: 7mi
Dew Point: Wind: 6mph
Humidity: 86% Direction: 270° (W)
Pressure: 30.03in Gusts: 0mph
Raw Report DataKMKE 240752Z 27005KT 7SM BKN008 OVC012 11/09 A3003 RMK AO2 SLP172 T01110089
Traffic Incident Summary
Active as of:
Severity:
Category:
InformationThere was an issue retrieving the traffic information for this location. Please try a different location or try again shortly.
Advertisements
Track Severe Weather on mobile